sensor_id;sensor_type;location;lat;lon;timestamp;temperature;humidity
33931;DHT22;20215;53.130;6.408;2023-02-02T00:00:02;14.10;80.10
33931;DHT22;20215;53.130;6.408;2023-02-02T00:02:28;14.00;80.10
33931;DHT22;20215;53.130;6.408;2023-02-02T00:04:53;14.00;80.10
33931;DHT22;20215;53.130;6.408;2023-02-02T00:07:19;14.00;80.00
33931;DHT22;20215;53.130;6.408;2023-02-02T00:09:44;14.00;80.00
33931;DHT22;20215;53.130;6.408;2023-02-02T00:12:10;13.90;79.80
33931;DHT22;20215;53.130;6.408;2023-02-02T00:14:36;13.90;79.90
33931;DHT22;20215;53.130;6.408;2023-02-02T00:17:01;13.90;79.80
33931;DHT22;20215;53.130;6.408;2023-02-02T00:19:29;13.90;79.80
33931;DHT22;20215;53.130;6.408;2023-02-02T00:21:56;13.80;79.60
33931;DHT22;20215;53.130;6.408;2023-02-02T00:24:22;13.80;79.70
33931;DHT22;20215;53.130;6.408;2023-02-02T00:26:52;13.80;79.50
33931;DHT22;20215;53.130;6.408;2023-02-02T00:29:23;13.80;79.40
33931;DHT22;20215;53.130;6.408;2023-02-02T00:31:49;13.70;79.50
33931;DHT22;20215;53.130;6.408;2023-02-02T00:34:16;13.70;79.60
33931;DHT22;20215;53.130;6.408;2023-02-02T00:36:43;13.70;79.60
33931;DHT22;20215;53.130;6.408;2023-02-02T00:39:10;13.70;79.60
33931;DHT22;20215;53.130;6.408;2023-02-02T00:41:37;13.70;79.60
33931;DHT22;20215;53.130;6.408;2023-02-02T00:44:03;13.70;79.40
33931;DHT22;20215;53.130;6.408;2023-02-02T00:46:47;13.60;79.40
33931;DHT22;20215;53.130;6.408;2023-02-02T00:49:13;13.60;79.30
33931;DHT22;20215;53.130;6.408;2023-02-02T00:51:38;13.60;79.30
33931;DHT22;20215;53.130;6.408;2023-02-02T00:54:04;13.60;79.20
33931;DHT22;20215;53.130;6.408;2023-02-02T00:56:30;13.60;79.30
33931;DHT22;20215;53.130;6.408;2023-02-02T00:58:55;13.60;79.20
33931;DHT22;20215;53.130;6.408;2023-02-02T01:01:21;13.60;79.10
33931;DHT22;20215;53.130;6.408;2023-02-02T01:03:49;13.50;78.90
33931;DHT22;20215;53.130;6.408;2023-02-02T01:06:15;13.50;79.00
33931;DHT22;20215;53.130;6.408;2023-02-02T01:08:41;13.50;79.00
33931;DHT22;20215;53.130;6.408;2023-02-02T01:11:07;13.50;79.00
33931;DHT22;20215;53.130;6.408;2023-02-02T01:13:33;13.50;79.00
33931;DHT22;20215;53.130;6.408;2023-02-02T01:16:00;13.40;78.90
33931;DHT22;20215;53.130;6.408;2023-02-02T01:18:27;13.40;79.00
33931;DHT22;20215;53.130;6.408;2023-02-02T01:21:11;13.40;78.90
33931;DHT22;20215;53.130;6.408;2023-02-02T01:23:37;13.40;79.00
33931;DHT22;20215;53.130;6.408;2023-02-02T01:26:05;13.40;79.10
33931;DHT22;20215;53.130;6.408;2023-02-02T01:28:32;13.40;79.20
33931;DHT22;20215;53.130;6.408;2023-02-02T01:30:57;13.40;79.10
33931;DHT22;20215;53.130;6.408;2023-02-02T01:33:24;13.40;79.20
33931;DHT22;20215;53.130;6.408;2023-02-02T01:35:54;13.40;79.10
33931;DHT22;20215;53.130;6.408;2023-02-02T01:38:21;13.40;78.60
33931;DHT22;20215;53.130;6.408;2023-02-02T01:40:55;13.40;78.80
33931;DHT22;20215;53.130;6.408;2023-02-02T01:43:28;13.40;78.70
33931;DHT22;20215;53.130;6.408;2023-02-02T01:45:55;13.40;78.80
33931;DHT22;20215;53.130;6.408;2023-02-02T01:48:25;13.30;78.80
33931;DHT22;20215;53.130;6.408;2023-02-02T01:50:56;13.30;78.70
33931;DHT22;20215;53.130;6.408;2023-02-02T01:53:23;13.30;78.70
33931;DHT22;20215;53.130;6.408;2023-02-02T01:55:49;13.30;78.90
33931;DHT22;20215;53.130;6.408;2023-02-02T01:58:25;13.30;78.80
33931;DHT22;20215;53.130;6.408;2023-02-02T02:00:52;13.30;78.60
33931;DHT22;20215;53.130;6.408;2023-02-02T02:03:20;13.30;78.70
33931;DHT22;20215;53.130;6.408;2023-02-02T02:06:06;13.30;78.80
33931;DHT22;20215;53.130;6.408;2023-02-02T02:08:39;13.20;78.50
33931;DHT22;20215;53.130;6.408;2023-02-02T02:11:05;13.20;78.60
33931;DHT22;20215;53.130;6.408;2023-02-02T02:13:33;13.20;78.80
33931;DHT22;20215;53.130;6.408;2023-02-02T02:34:34;13.10;78.90
33931;DHT22;20215;53.130;6.408;2023-02-02T02:37:17;13.10;78.90
33931;DHT22;20215;53.130;6.408;2023-02-02T02:40:07;13.20;78.90
33931;DHT22;20215;53.130;6.408;2023-02-02T02:42:38;13.10;78.90
33931;DHT22;20215;53.130;6.408;2023-02-02T02:45:06;13.10;79.00
33931;DHT22;20215;53.130;6.408;2023-02-02T02:47:33;13.10;79.00
33931;DHT22;20215;53.130;6.408;2023-02-02T02:49:59;13.10;78.90
33931;DHT22;20215;53.130;6.408;2023-02-02T02:52:25;13.10;78.90
33931;DHT22;20215;53.130;6.408;2023-02-02T02:54:54;13.10;78.90
33931;DHT22;20215;53.130;6.408;2023-02-02T03:08:38;13.10;78.90
33931;DHT22;20215;53.130;6.408;2023-02-02T03:11:07;13.00;78.90
33931;DHT22;20215;53.130;6.408;2023-02-02T03:13:34;13.00;79.00
33931;DHT22;20215;53.130;6.408;2023-02-02T03:15:59;13.10;79.10
33931;DHT22;20215;53.130;6.408;2023-02-02T03:18:28;13.00;79.00
33931;DHT22;20215;53.130;6.408;2023-02-02T03:20:54;13.10;78.90
33931;DHT22;20215;53.130;6.408;2023-02-02T03:23:20;13.10;79.00
33931;DHT22;20215;53.130;6.408;2023-02-02T03:25:46;13.10;78.90
33931;DHT22;20215;53.130;6.408;2023-02-02T03:28:13;13.10;78.90
33931;DHT22;20215;53.130;6.408;2023-02-02T03:30:39;13.10;78.90
33931;DHT22;20215;53.130;6.408;2023-02-02T03:33:06;13.10;78.90
33931;DHT22;20215;53.130;6.408;2023-02-02T03:35:31;13.10;78.80
33931;DHT22;20215;53.130;6.408;2023-02-02T03:37:57;13.10;78.70
33931;DHT22;20215;53.130;6.408;2023-02-02T03:40:23;13.10;78.80
33931;DHT22;20215;53.130;6.408;2023-02-02T03:42:48;13.10;78.80
33931;DHT22;20215;53.130;6.408;2023-02-02T03:45:14;13.10;78.80
33931;DHT22;20215;53.130;6.408;2023-02-02T03:47:40;13.10;78.80
33931;DHT22;20215;53.130;6.408;2023-02-02T03:50:06;13.10;78.80
33931;DHT22;20215;53.130;6.408;2023-02-02T03:52:32;13.10;78.80
33931;DHT22;20215;53.130;6.408;2023-02-02T03:54:59;13.00;79.30
33931;DHT22;20215;53.130;6.408;2023-02-02T03:57:24;13.00;78.60
33931;DHT22;20215;53.130;6.408;2023-02-02T03:59:50;13.00;78.70
33931;DHT22;20215;53.130;6.408;2023-02-02T04:02:16;13.00;78.80
33931;DHT22;20215;53.130;6.408;2023-02-02T04:04:41;13.00;78.80
33931;DHT22;20215;53.130;6.408;2023-02-02T04:07:07;13.00;78.90
33931;DHT22;20215;53.130;6.408;2023-02-02T04:09:33;13.00;78.80
33931;DHT22;20215;53.130;6.408;2023-02-02T04:11:58;13.00;78.90
33931;DHT22;20215;53.130;6.408;2023-02-02T04:14:24;13.00;79.00
33931;DHT22;20215;53.130;6.408;2023-02-02T04:16:49;13.00;79.10
33931;DHT22;20215;53.130;6.408;2023-02-02T04:19:15;13.00;79.00
33931;DHT22;20215;53.130;6.408;2023-02-02T04:21:41;13.00;79.10
33931;DHT22;20215;53.130;6.408;2023-02-02T04:24:11;13.00;79.10
33931;DHT22;20215;53.130;6.408;2023-02-02T04:26:37;13.00;79.10
33931;DHT22;20215;53.130;6.408;2023-02-02T04:29:02;13.00;79.10
33931;DHT22;20215;53.130;6.408;2023-02-02T04:31:28;12.90;79.20
33931;DHT22;20215;53.130;6.408;2023-02-02T04:33:55;13.00;79.30
33931;DHT22;20215;53.130;6.408;2023-02-02T04:36:20;12.90;79.20
33931;DHT22;20215;53.130;6.408;2023-02-02T04:38:50;12.90;79.20
33931;DHT22;20215;53.130;6.408;2023-02-02T04:41:16;12.90;79.30
33931;DHT22;20215;53.130;6.408;2023-02-02T04:43:43;12.90;79.30
33931;DHT22;20215;53.130;6.408;2023-02-02T04:46:09;12.90;79.40
33931;DHT22;20215;53.130;6.408;2023-02-02T04:48:35;12.90;79.40
33931;DHT22;20215;53.130;6.408;2023-02-02T04:51:03;12.90;79.50
33931;DHT22;20215;53.130;6.408;2023-02-02T04:53:29;12.80;79.40
33931;DHT22;20215;53.130;6.408;2023-02-02T04:55:55;12.80;79.50
33931;DHT22;20215;53.130;6.408;2023-02-02T04:58:21;12.80;79.40
33931;DHT22;20215;53.130;6.408;2023-02-02T05:00:47;12.80;79.50
33931;DHT22;20215;53.130;6.408;2023-02-02T05:03:12;12.80;79.50
33931;DHT22;20215;53.130;6.408;2023-02-02T05:05:38;12.80;79.60
33931;DHT22;20215;53.130;6.408;2023-02-02T05:08:04;12.80;79.60
33931;DHT22;20215;53.130;6.408;2023-02-02T05:10:30;12.80;79.60
33931;DHT22;20215;53.130;6.408;2023-02-02T05:12:56;12.80;79.80
33931;DHT22;20215;53.130;6.408;2023-02-02T05:15:22;12.90;79.90
33931;DHT22;20215;53.130;6.408;2023-02-02T05:17:48;12.90;80.10
33931;DHT22;20215;53.130;6.408;2023-02-02T05:20:14;12.90;80.20
33931;DHT22;20215;53.130;6.408;2023-02-02T05:22:40;13.00;80.50
33931;DHT22;20215;53.130;6.408;2023-02-02T05:25:07;13.00;80.50
33931;DHT22;20215;53.130;6.408;2023-02-02T05:27:33;13.00;80.70
33931;DHT22;20215;53.130;6.408;2023-02-02T05:29:59;13.10;80.90
33931;DHT22;20215;53.130;6.408;2023-02-02T05:32:24;13.10;81.00
33931;DHT22;20215;53.130;6.408;2023-02-02T05:34:50;13.20;81.20
33931;DHT22;20215;53.130;6.408;2023-02-02T05:37:16;13.20;81.30
33931;DHT22;20215;53.130;6.408;2023-02-02T05:39:41;13.30;81.50
33931;DHT22;20215;53.130;6.408;2023-02-02T05:42:07;13.30;81.70
33931;DHT22;20215;53.130;6.408;2023-02-02T05:44:33;13.40;81.90
33931;DHT22;20215;53.130;6.408;2023-02-02T05:46:58;13.40;82.00
33931;DHT22;20215;53.130;6.408;2023-02-02T05:49:24;13.50;82.20
33931;DHT22;20215;53.130;6.408;2023-02-02T05:51:55;13.50;82.30
33931;DHT22;20215;53.130;6.408;2023-02-02T05:54:22;13.60;82.70
33931;DHT22;20215;53.130;6.408;2023-02-02T05:56:49;13.60;82.70
33931;DHT22;20215;53.130;6.408;2023-02-02T05:59:15;13.70;82.80
33931;DHT22;20215;53.130;6.408;2023-02-02T06:01:42;13.70;82.80
33931;DHT22;20215;53.130;6.408;2023-02-02T06:04:08;13.80;83.00
33931;DHT22;20215;53.130;6.408;2023-02-02T06:06:33;13.80;83.00
33931;DHT22;20215;53.130;6.408;2023-02-02T06:09:01;13.80;82.80
33931;DHT22;20215;53.130;6.408;2023-02-02T06:11:26;13.90;82.60
33931;DHT22;20215;53.130;6.408;2023-02-02T06:13:52;13.90;82.50
33931;DHT22;20215;53.130;6.408;2023-02-02T06:16:17;13.90;82.30
33931;DHT22;20215;53.130;6.408;2023-02-02T06:18:43;13.90;82.30
33931;DHT22;20215;53.130;6.408;2023-02-02T06:21:10;13.90;82.20
33931;DHT22;20215;53.130;6.408;2023-02-02T06:23:36;13.90;82.00
33931;DHT22;20215;53.130;6.408;2023-02-02T06:26:02;13.90;81.90
33931;DHT22;20215;53.130;6.408;2023-02-02T06:28:31;13.90;81.90
33931;DHT22;20215;53.130;6.408;2023-02-02T06:31:03;13.90;81.80
33931;DHT22;20215;53.130;6.408;2023-02-02T06:33:29;13.90;82.00
33931;DHT22;20215;53.130;6.408;2023-02-02T06:36:01;13.90;81.70
33931;DHT22;20215;53.130;6.408;2023-02-02T06:38:27;13.90;81.60
33931;DHT22;20215;53.130;6.408;2023-02-02T06:40:53;13.90;81.40
33931;DHT22;20215;53.130;6.408;2023-02-02T06:43:18;13.90;81.30
33931;DHT22;20215;53.130;6.408;2023-02-02T06:45:44;13.90;81.40
33931;DHT22;20215;53.130;6.408;2023-02-02T06:48:10;13.80;81.40
33931;DHT22;20215;53.130;6.408;2023-02-02T06:50:37;13.80;81.30
33931;DHT22;20215;53.130;6.408;2023-02-02T06:53:03;13.90;81.40
33931;DHT22;20215;53.130;6.408;2023-02-02T06:55:28;13.80;81.20
33931;DHT22;20215;53.130;6.408;2023-02-02T06:57:58;13.80;81.20
33931;DHT22;20215;53.130;6.408;2023-02-02T07:00:25;13.80;81.20
33931;DHT22;20215;53.130;6.408;2023-02-02T07:02:51;13.80;81.10
33931;DHT22;20215;53.130;6.408;2023-02-02T07:05:17;13.80;81.00
33931;DHT22;20215;53.130;6.408;2023-02-02T07:07:51;13.80;80.90
33931;DHT22;20215;53.130;6.408;2023-02-02T07:10:17;13.70;80.80
33931;DHT22;20215;53.130;6.408;2023-02-02T07:12:44;13.70;80.80
33931;DHT22;20215;53.130;6.408;2023-02-02T07:15:10;13.70;80.80
33931;DHT22;20215;53.130;6.408;2023-02-02T07:17:36;13.70;80.80
33931;DHT22;20215;53.130;6.408;2023-02-02T07:20:01;13.60;80.70
33931;DHT22;20215;53.130;6.408;2023-02-02T07:22:27;13.60;80.70
33931;DHT22;20215;53.130;6.408;2023-02-02T07:24:52;13.60;80.70
33931;DHT22;20215;53.130;6.408;2023-02-02T07:27:18;13.60;80.70
33931;DHT22;20215;53.130;6.408;2023-02-02T07:29:44;13.60;80.60
33931;DHT22;20215;53.130;6.408;2023-02-02T07:32:09;13.50;80.60
33931;DHT22;20215;53.130;6.408;2023-02-02T07:34:38;13.50;80.60
33931;DHT22;20215;53.130;6.408;2023-02-02T07:37:07;13.50;80.60
33931;DHT22;20215;53.130;6.408;2023-02-02T07:39:33;13.50;80.60
33931;DHT22;20215;53.130;6.408;2023-02-02T07:41:58;13.50;80.60
33931;DHT22;20215;53.130;6.408;2023-02-02T07:44:25;13.50;80.60
33931;DHT22;20215;53.130;6.408;2023-02-02T07:46:50;13.50;80.60
33931;DHT22;20215;53.130;6.408;2023-02-02T07:49:17;13.50;80.60
33931;DHT22;20215;53.130;6.408;2023-02-02T07:51:43;13.50;80.60
33931;DHT22;20215;53.130;6.408;2023-02-02T07:54:10;13.50;80.50
33931;DHT22;20215;53.130;6.408;2023-02-02T07:56:37;13.40;80.50
33931;DHT22;20215;53.130;6.408;2023-02-02T07:59:03;13.40;80.50
33931;DHT22;20215;53.130;6.408;2023-02-02T08:01:29;13.40;80.40
33931;DHT22;20215;53.130;6.408;2023-02-02T08:03:56;13.40;80.40
33931;DHT22;20215;53.130;6.408;2023-02-02T08:06:24;13.40;80.40
33931;DHT22;20215;53.130;6.408;2023-02-02T08:08:50;13.40;80.40
33931;DHT22;20215;53.130;6.408;2023-02-02T08:11:18;13.30;80.30
33931;DHT22;20215;53.130;6.408;2023-02-02T08:13:47;13.40;80.50
33931;DHT22;20215;53.130;6.408;2023-02-02T08:16:13;13.40;80.50
33931;DHT22;20215;53.130;6.408;2023-02-02T08:18:39;13.30;80.50
33931;DHT22;20215;53.130;6.408;2023-02-02T08:21:06;13.30;80.40
33931;DHT22;20215;53.130;6.408;2023-02-02T08:23:33;13.30;80.50
33931;DHT22;20215;53.130;6.408;2023-02-02T08:26:10;13.30;80.50
33931;DHT22;20215;53.130;6.408;2023-02-02T08:28:36;13.30;80.50
33931;DHT22;20215;53.130;6.408;2023-02-02T08:31:14;13.20;80.40
33931;DHT22;20215;53.130;6.408;2023-02-02T08:33:41;13.20;80.50
33931;DHT22;20215;53.130;6.408;2023-02-02T08:36:14;13.20;81.00
33931;DHT22;20215;53.130;6.408;2023-02-02T08:38:40;13.20;80.50
33931;DHT22;20215;53.130;6.408;2023-02-02T08:41:08;13.20;80.60
33931;DHT22;20215;53.130;6.408;2023-02-02T08:43:34;13.20;80.50
33931;DHT22;20215;53.130;6.408;2023-02-02T08:46:00;13.20;80.50
33931;DHT22;20215;53.130;6.408;2023-02-02T08:48:26;13.20;80.50
33931;DHT22;20215;53.130;6.408;2023-02-02T08:50:53;13.20;80.50
33931;DHT22;20215;53.130;6.408;2023-02-02T08:53:19;13.20;80.50
33931;DHT22;20215;53.130;6.408;2023-02-02T08:55:44;13.20;80.50
33931;DHT22;20215;53.130;6.408;2023-02-02T08:58:10;13.20;80.50
33931;DHT22;20215;53.130;6.408;2023-02-02T09:00:36;13.20;81.00
33931;DHT22;20215;53.130;6.408;2023-02-02T09:03:01;13.20;80.50
33931;DHT22;20215;53.130;6.408;2023-02-02T09:05:27;13.20;80.50
33931;DHT22;20215;53.130;6.408;2023-02-02T09:07:52;13.20;80.50
33931;DHT22;20215;53.130;6.408;2023-02-02T09:10:18;13.20;80.50
33931;DHT22;20215;53.130;6.408;2023-02-02T09:12:44;13.10;80.50
33931;DHT22;20215;53.130;6.408;2023-02-02T09:15:09;13.20;80.60
33931;DHT22;20215;53.130;6.408;2023-02-02T09:17:36;13.10;80.60
33931;DHT22;20215;53.130;6.408;2023-02-02T09:20:02;13.10;80.60
33931;DHT22;20215;53.130;6.408;2023-02-02T09:22:29;13.10;80.60
33931;DHT22;20215;53.130;6.408;2023-02-02T09:24:54;13.10;80.60
33931;DHT22;20215;53.130;6.408;2023-02-02T09:27:20;13.10;80.60
33931;DHT22;20215;53.130;6.408;2023-02-02T09:29:46;13.20;81.20
33931;DHT22;20215;53.130;6.408;2023-02-02T09:32:13;13.10;80.70
33931;DHT22;20215;53.130;6.408;2023-02-02T09:34:38;13.10;80.70
33931;DHT22;20215;53.130;6.408;2023-02-02T09:37:04;13.10;80.60
33931;DHT22;20215;53.130;6.408;2023-02-02T09:39:30;13.10;80.70
33931;DHT22;20215;53.130;6.408;2023-02-02T09:47:17;13.10;80.70
33931;DHT22;20215;53.130;6.408;2023-02-02T09:52:39;13.10;80.60
33931;DHT22;20215;53.130;6.408;2023-02-02T09:55:29;13.10;80.80
33931;DHT22;20215;53.130;6.408;2023-02-02T09:58:04;13.10;80.80
33931;DHT22;20215;53.130;6.408;2023-02-02T10:00:38;13.10;80.90
33931;DHT22;20215;53.130;6.408;2023-02-02T10:03:20;13.10;81.00
33931;DHT22;20215;53.130;6.408;2023-02-02T10:06:16;13.10;80.90
33931;DHT22;20215;53.130;6.408;2023-02-02T10:08:53;13.10;80.90
33931;DHT22;20215;53.130;6.408;2023-02-02T10:11:33;13.10;81.00
33931;DHT22;20215;53.130;6.408;2023-02-02T10:14:10;13.10;81.00
33931;DHT22;20215;53.130;6.408;2023-02-02T10:16:40;13.10;81.20
33931;DHT22;20215;53.130;6.408;2023-02-02T10:19:10;13.10;81.00
33931;DHT22;20215;53.130;6.408;2023-02-02T10:21:45;13.10;81.10
33931;DHT22;20215;53.130;6.408;2023-02-02T10:24:24;13.20;81.10
33931;DHT22;20215;53.130;6.408;2023-02-02T10:26:55;13.10;81.00
33931;DHT22;20215;53.130;6.408;2023-02-02T10:29:28;13.10;81.00
33931;DHT22;20215;53.130;6.408;2023-02-02T10:34:44;13.20;81.20
33931;DHT22;20215;53.130;6.408;2023-02-02T10:46:23;13.10;81.00
33931;DHT22;20215;53.130;6.408;2023-02-02T10:48:49;13.10;81.10
33931;DHT22;20215;53.130;6.408;2023-02-02T10:51:26;13.10;81.10
33931;DHT22;20215;53.130;6.408;2023-02-02T10:53:54;13.10;81.10
33931;DHT22;20215;53.130;6.408;2023-02-02T10:56:39;13.20;81.20
33931;DHT22;20215;53.130;6.408;2023-02-02T10:59:15;13.10;81.10
33931;DHT22;20215;53.130;6.408;2023-02-02T11:01:43;13.10;81.20
33931;DHT22;20215;53.130;6.408;2023-02-02T11:04:10;13.10;81.20
33931;DHT22;20215;53.130;6.408;2023-02-02T11:06:54;13.10;81.20
33931;DHT22;20215;53.130;6.408;2023-02-02T11:09:25;13.10;81.20
33931;DHT22;20215;53.130;6.408;2023-02-02T11:12:32;13.10;81.20
33931;DHT22;20215;53.130;6.408;2023-02-02T11:15:06;13.10;81.20
33931;DHT22;20215;53.130;6.408;2023-02-02T11:17:32;13.10;81.20
33931;DHT22;20215;53.130;6.408;2023-02-02T11:19:59;13.20;81.30
33931;DHT22;20215;53.130;6.408;2023-02-02T11:24:56;13.10;81.20
33931;DHT22;20215;53.130;6.408;2023-02-02T11:27:35;13.10;81.30
33931;DHT22;20215;53.130;6.408;2023-02-02T11:30:23;13.20;81.30
33931;DHT22;20215;53.130;6.408;2023-02-02T11:32:51;13.20;81.30
33931;DHT22;20215;53.130;6.408;2023-02-02T11:35:25;13.10;81.30
33931;DHT22;20215;53.130;6.408;2023-02-02T11:38:08;13.20;81.40
33931;DHT22;20215;53.130;6.408;2023-02-02T11:40:39;13.10;81.40
33931;DHT22;20215;53.130;6.408;2023-02-02T11:43:16;13.10;81.40
33931;DHT22;20215;53.130;6.408;2023-02-02T11:45:44;13.10;81.60
33931;DHT22;20215;53.130;6.408;2023-02-02T11:48:18;13.10;81.50
33931;DHT22;20215;53.130;6.408;2023-02-02T11:50:50;13.10;81.50
33931;DHT22;20215;53.130;6.408;2023-02-02T11:53:20;13.10;81.40
33931;DHT22;20215;53.130;6.408;2023-02-02T11:55:46;13.10;81.50
33931;DHT22;20215;53.130;6.408;2023-02-02T12:00:47;13.10;81.70
33931;DHT22;20215;53.130;6.408;2023-02-02T12:03:25;13.00;81.50
33931;DHT22;20215;53.130;6.408;2023-02-02T12:05:51;13.00;81.70
33931;DHT22;20215;53.130;6.408;2023-02-02T12:08:17;13.00;81.70
33931;DHT22;20215;53.130;6.408;2023-02-02T12:28:27;13.00;81.90
33931;DHT22;20215;53.130;6.408;2023-02-02T12:31:02;13.10;82.10
33931;DHT22;20215;53.130;6.408;2023-02-02T12:33:52;13.00;82.00
33931;DHT22;20215;53.130;6.408;2023-02-02T12:36:35;13.00;82.00
33931;DHT22;20215;53.130;6.408;2023-02-02T12:39:16;13.00;82.00
33931;DHT22;20215;53.130;6.408;2023-02-02T12:42:02;13.00;82.10
33931;DHT22;20215;53.130;6.408;2023-02-02T12:49:54;13.00;82.30
33931;DHT22;20215;53.130;6.408;2023-02-02T12:55:58;13.00;82.40
33931;DHT22;20215;53.130;6.408;2023-02-02T13:06:17;12.90;82.90
33931;DHT22;20215;53.130;6.408;2023-02-02T13:09:00;12.90;83.00
33931;DHT22;20215;53.130;6.408;2023-02-02T13:11:47;13.00;83.10
33931;DHT22;20215;53.130;6.408;2023-02-02T13:14:31;13.00;83.20
33931;DHT22;20215;53.130;6.408;2023-02-02T13:17:03;12.90;83.10
33931;DHT22;20215;53.130;6.408;2023-02-02T13:19:45;12.90;83.20
33931;DHT22;20215;53.130;6.408;2023-02-02T13:22:28;12.90;83.00
33931;DHT22;20215;53.130;6.408;2023-02-02T13:24:59;13.00;83.00
33931;DHT22;20215;53.130;6.408;2023-02-02T13:27:26;13.00;83.00
33931;DHT22;20215;53.130;6.408;2023-02-02T13:29:58;13.00;83.00
33931;DHT22;20215;53.130;6.408;2023-02-02T13:32:36;13.00;83.10
33931;DHT22;20215;53.130;6.408;2023-02-02T13:35:12;13.00;83.20
33931;DHT22;20215;53.130;6.408;2023-02-02T13:37:50;13.00;83.10
33931;DHT22;20215;53.130;6.408;2023-02-02T13:40:34;13.00;83.20
33931;DHT22;20215;53.130;6.408;2023-02-02T13:43:07;13.00;83.30
33931;DHT22;20215;53.130;6.408;2023-02-02T13:54:31;13.00;83.60
33931;DHT22;20215;53.130;6.408;2023-02-02T13:59:53;12.90;83.50
33931;DHT22;20215;53.130;6.408;2023-02-02T14:02:38;13.00;83.50
33931;DHT22;20215;53.130;6.408;2023-02-02T14:05:06;13.00;83.40
33931;DHT22;20215;53.130;6.408;2023-02-02T14:07:40;13.00;83.50
33931;DHT22;20215;53.130;6.408;2023-02-02T14:10:23;13.00;83.60
33931;DHT22;20215;53.130;6.408;2023-02-02T14:12:49;13.00;83.50
33931;DHT22;20215;53.130;6.408;2023-02-02T14:15:16;13.00;83.40
33931;DHT22;20215;53.130;6.408;2023-02-02T14:21:01;13.00;83.40
33931;DHT22;20215;53.130;6.408;2023-02-02T14:23:53;13.00;83.70
33931;DHT22;20215;53.130;6.408;2023-02-02T14:26:40;13.00;83.50
33931;DHT22;20215;53.130;6.408;2023-02-02T14:31:57;13.00;83.90
33931;DHT22;20215;53.130;6.408;2023-02-02T14:45:36;13.00;83.40
33931;DHT22;20215;53.130;6.408;2023-02-02T14:48:07;13.00;83.60
33931;DHT22;20215;53.130;6.408;2023-02-02T15:06:47;13.10;83.90
33931;DHT22;20215;53.130;6.408;2023-02-02T15:25:15;13.10;83.60
33931;DHT22;20215;53.130;6.408;2023-02-02T15:27:49;13.10;83.80
33931;DHT22;20215;53.130;6.408;2023-02-02T15:30:16;13.10;83.80
33931;DHT22;20215;53.130;6.408;2023-02-02T15:32:42;13.10;83.80
33931;DHT22;20215;53.130;6.408;2023-02-02T15:35:19;13.10;83.70
33931;DHT22;20215;53.130;6.408;2023-02-02T15:37:49;13.10;83.60
33931;DHT22;20215;53.130;6.408;2023-02-02T15:40:21;13.10;83.90
33931;DHT22;20215;53.130;6.408;2023-02-02T15:42:49;13.10;83.80
33931;DHT22;20215;53.130;6.408;2023-02-02T15:47:54;13.10;83.80
33931;DHT22;20215;53.130;6.408;2023-02-02T15:50:20;13.10;83.90
33931;DHT22;20215;53.130;6.408;2023-02-02T15:52:48;13.10;83.80
33931;DHT22;20215;53.130;6.408;2023-02-02T15:55:34;13.20;83.90
33931;DHT22;20215;53.130;6.408;2023-02-02T15:58:01;13.20;84.10
33931;DHT22;20215;53.130;6.408;2023-02-02T16:00:35;13.20;84.00
33931;DHT22;20215;53.130;6.408;2023-02-02T16:03:06;13.10;83.80
33931;DHT22;20215;53.130;6.408;2023-02-02T16:08:00;13.10;83.80
33931;DHT22;20215;53.130;6.408;2023-02-02T16:10:26;13.20;83.90
33931;DHT22;20215;53.130;6.408;2023-02-02T16:12:52;13.20;83.90
33931;DHT22;20215;53.130;6.408;2023-02-02T16:15:20;13.20;83.80
33931;DHT22;20215;53.130;6.408;2023-02-02T16:17:57;13.20;83.90
33931;DHT22;20215;53.130;6.408;2023-02-02T16:20:24;13.20;84.00
33931;DHT22;20215;53.130;6.408;2023-02-02T16:22:50;13.20;83.90
33931;DHT22;20215;53.130;6.408;2023-02-02T16:25:18;13.20;83.90
33931;DHT22;20215;53.130;6.408;2023-02-02T16:27:46;13.20;83.90
33931;DHT22;20215;53.130;6.408;2023-02-02T16:30:36;13.20;83.90
33931;DHT22;20215;53.130;6.408;2023-02-02T16:35:53;13.20;84.10
33931;DHT22;20215;53.130;6.408;2023-02-02T16:40:47;13.20;84.20
33931;DHT22;20215;53.130;6.408;2023-02-02T16:43:27;13.20;84.20
33931;DHT22;20215;53.130;6.408;2023-02-02T16:46:02;13.20;84.20
33931;DHT22;20215;53.130;6.408;2023-02-02T16:48:38;13.20;84.10
33931;DHT22;20215;53.130;6.408;2023-02-02T16:51:20;13.20;84.20
33931;DHT22;20215;53.130;6.408;2023-02-02T16:53:57;13.20;84.30
33931;DHT22;20215;53.130;6.408;2023-02-02T16:58:53;13.20;84.50
33931;DHT22;20215;53.130;6.408;2023-02-02T17:01:37;13.30;84.40
33931;DHT22;20215;53.130;6.408;2023-02-02T17:04:04;13.20;84.30
33931;DHT22;20215;53.130;6.408;2023-02-02T17:06:32;13.30;84.30
33931;DHT22;20215;53.130;6.408;2023-02-02T17:09:35;13.20;84.30
33931;DHT22;20215;53.130;6.408;2023-02-02T17:12:20;13.30;84.70
33931;DHT22;20215;53.130;6.408;2023-02-02T17:14:58;13.30;84.40
33931;DHT22;20215;53.130;6.408;2023-02-02T17:17:26;13.20;84.40
33931;DHT22;20215;53.130;6.408;2023-02-02T17:19:52;13.20;84.40
33931;DHT22;20215;53.130;6.408;2023-02-02T17:22:21;13.20;84.30
33931;DHT22;20215;53.130;6.408;2023-02-02T17:24:50;13.20;84.40
33931;DHT22;20215;53.130;6.408;2023-02-02T17:27:20;13.20;84.40
33931;DHT22;20215;53.130;6.408;2023-02-02T17:29:50;13.20;84.40
33931;DHT22;20215;53.130;6.408;2023-02-02T17:32:16;13.30;84.50
33931;DHT22;20215;53.130;6.408;2023-02-02T17:34:41;13.30;84.40
33931;DHT22;20215;53.130;6.408;2023-02-02T17:37:07;13.30;84.60
33931;DHT22;20215;53.130;6.408;2023-02-02T17:39:33;13.30;84.60
33931;DHT22;20215;53.130;6.408;2023-02-02T17:41:59;13.30;84.70
33931;DHT22;20215;53.130;6.408;2023-02-02T17:44:25;13.40;84.90
33931;DHT22;20215;53.130;6.408;2023-02-02T17:46:51;13.40;85.00
33931;DHT22;20215;53.130;6.408;2023-02-02T17:49:17;13.40;85.10
33931;DHT22;20215;53.130;6.408;2023-02-02T17:51:44;13.50;85.30
33931;DHT22;20215;53.130;6.408;2023-02-02T17:54:14;13.50;85.50
33931;DHT22;20215;53.130;6.408;2023-02-02T17:56:41;13.60;85.80
33931;DHT22;20215;53.130;6.408;2023-02-02T17:59:07;13.60;85.80
33931;DHT22;20215;53.130;6.408;2023-02-02T18:01:35;13.70;86.10
33931;DHT22;20215;53.130;6.408;2023-02-02T18:04:01;13.70;86.20
33931;DHT22;20215;53.130;6.408;2023-02-02T18:06:27;13.70;86.30
33931;DHT22;20215;53.130;6.408;2023-02-02T18:08:53;13.80;86.50
33931;DHT22;20215;53.130;6.408;2023-02-02T18:11:18;13.80;86.70
33931;DHT22;20215;53.130;6.408;2023-02-02T18:13:44;13.90;86.80
33931;DHT22;20215;53.130;6.408;2023-02-02T18:16:11;14.00;87.00
33931;DHT22;20215;53.130;6.408;2023-02-02T18:18:37;14.00;87.20
33931;DHT22;20215;53.130;6.408;2023-02-02T18:21:07;14.10;87.50
33931;DHT22;20215;53.130;6.408;2023-02-02T18:23:33;14.10;87.60
33931;DHT22;20215;53.130;6.408;2023-02-02T18:26:10;14.20;87.70